Elka Eleftheria — ELZP9 — position and weather

sailwx.info

Track history (hours):
 
Tides and Currents Weather Stations Pressure Air Temp Water Temp Dewpoint Dewpoint Depression Visibility Wind Speed Wind Dir Waves Ship Positions

Elka Eleftheria

Last reported at 2018-Feb-08 00:56 UTC. Time now 2018-Feb-18 03:25 UTC.
Position N 29°23' W 093°40'.
Warning: this ship's position is 10 days out of date.

Length 183 m; draft 12.2 m.

Type: Ship. MMSI: 636011496.

Date/timePositionNaut miles runAvg speedWind from/ knotsBaromVisibWave heightAir tempDewpointWater temp
2018-Feb-08 00:56N 29°23' W 093°40'6 8.0
2018-Feb-08 00:12N 29°29' W 093°40'210.4
2018-Feb-08 00:00N 29°30' W 093°42'510.6
2018-Feb-07 23:30N 29°34' W 093°46'510.3
2018-Feb-07 23:00N 29°38' W 093°49'510.0
2018-Feb-07 22:30N 29°43' W 093°52'4 8.3
2018-Feb-07 22:00N 29°46' W 093°55'4 7.6
2018-Feb-07 21:31N 29°49' W 093°58'2 0.1
2018-Feb-07 09:30N 29°51' W 093°58'0 0.0
2018-Feb-07 09:00N 29°51' W 093°58'0 0.0
2018-Feb-07 08:30N 29°51' W 093°58'0 0.0
2018-Feb-07 08:00N 29°51' W 093°58'0 0.0
2018-Feb-07 07:30N 29°51' W 093°58'0 0.0
2018-Feb-07 07:00N 29°51' W 093°58'0 0.0
2018-Feb-07 06:30N 29°51' W 093°58'0 0.0
2018-Feb-07 06:00N 29°51' W 093°58'0 0.0
2018-Feb-07 05:30N 29°51' W 093°58'0 0.0
2018-Feb-07 05:00N 29°51' W 093°58'0 0.0
2018-Feb-07 04:30N 29°51' W 093°58'0 0.0
2018-Feb-07 04:00N 29°51' W 093°58'0 0.0
2018-Feb-07 03:30N 29°51' W 093°58'0 0.0
2018-Feb-07 03:00N 29°51' W 093°58'0 0.0
2018-Feb-07 02:30N 29°51' W 093°58'0 0.0
2018-Feb-07 02:00N 29°51' W 093°58'0 0.0
2018-Feb-07 01:30N 29°51' W 093°58'0 0.0
2018-Feb-07 01:00N 29°51' W 093°58'0 0.0
2018-Feb-07 00:30N 29°51' W 093°58'0 0.0
2018-Feb-07 00:00N 29°51' W 093°58'0 0.0
2018-Feb-06 23:30N 29°51' W 093°58'0 0.0
2018-Feb-06 23:00N 29°51' W 093°58'0 0.0
2018-Feb-06 22:30N 29°51' W 093°58'0 0.0
2018-Feb-06 22:00N 29°51' W 093°58'0 0.0
2018-Feb-06 21:30N 29°51' W 093°58'0 0.0
2018-Feb-06 21:00N 29°51' W 093°58'0 0.0
2018-Feb-06 20:30N 29°51' W 093°58'0 0.0
2018-Feb-06 20:00N 29°51' W 093°58'0 0.0
2018-Feb-06 19:30N 29°51' W 093°58'0 0.0
2018-Feb-06 19:00N 29°51' W 093°58'0 0.0
2018-Feb-06 18:30N 29°51' W 093°58'0 0.0
2018-Feb-06 18:00N 29°51' W 093°58'0 0.0
2018-Feb-06 17:30N 29°51' W 093°58'0 0.0
2018-Feb-06 17:00N 29°51' W 093°58'0 0.0
2018-Feb-06 16:30N 29°51' W 093°58'0 0.0
2018-Feb-06 16:00N 29°51' W 093°58'0 0.0
2018-Feb-06 15:30N 29°51' W 093°58'0 0.0
2018-Feb-06 15:00N 29°51' W 093°58'0 0.0
2018-Feb-06 14:27N 29°51' W 093°58'0 0.0
2018-Feb-06 14:00N 29°51' W 093°58'0 0.0
2018-Feb-06 13:30N 29°51' W 093°58'0 0.0
2018-Feb-06 13:00N 29°51' W 093°58'0 0.0
2018-Feb-06 12:30N 29°51' W 093°58'0 0.0
2018-Feb-06 11:30N 29°51' W 093°58'0 0.0
2018-Feb-06 11:00N 29°51' W 093°58'0 0.0
2018-Feb-06 10:00N 29°51' W 093°58'0 0.0
2018-Feb-06 09:30N 29°51' W 093°58'0 0.0
2018-Feb-06 09:00N 29°51' W 093°58'0 0.0
2018-Feb-06 08:30N 29°51' W 093°58'0 0.0
2018-Feb-06 08:00N 29°51' W 093°58'0 0.0
2018-Feb-06 07:30N 29°51' W 093°58'0 0.0
2018-Feb-06 07:00N 29°51' W 093°58'0 0.0
2018-Feb-06 06:29N 29°51' W 093°58'0 0.0
2018-Feb-06 06:00N 29°51' W 093°58'0 0.0
2018-Feb-06 05:28N 29°51' W 093°58'0 0.0
2018-Feb-06 04:58N 29°51' W 093°58'0 0.0
2018-Feb-06 04:27N 29°51' W 093°58'0 0.0
2018-Feb-06 04:00N 29°51' W 093°58'0 0.0
2018-Feb-06 03:30N 29°51' W 093°58'0 0.0
2018-Feb-06 03:00N 29°51' W 093°58'1 0.4
2018-Feb-06 00:30N 29°50' W 093°58'7 7.2
2018-Feb-05 23:30N 29°44' W 093°52'9 9.4
2018-Feb-05 22:30N 29°36' W 093°47'4 3.8
2018-Feb-05 21:28N 29°34' W 093°43'0 0.0
2018-Feb-05 20:58N 29°34' W 093°43'0 0.0
2018-Feb-05 20:28N 29°34' W 093°43'0 0.0
2018-Feb-05 19:49N 29°34' W 093°43'0 0.0
2018-Feb-05 19:28N 29°34' W 093°43'0 0.0
2018-Feb-05 18:22N 29°34' W 093°43'0 0.0
2018-Feb-05 15:43N 29°34' W 093°43'0 0.0
2018-Feb-05 15:16N 29°34' W 093°43'0 0.0
2018-Feb-05 14:58N 29°34' W 093°43'0 0.0
2018-Feb-05 14:28N 29°34' W 093°43'0 0.0
2018-Feb-05 13:52N 29°34' W 093°43'0 0.0
2018-Feb-05 13:28N 29°34' W 093°43'0 0.0
2018-Feb-05 12:55N 29°34' W 093°43'0 0.0
2018-Feb-05 12:10N 29°34' W 093°43'0 0.1
2018-Feb-05 11:58N 29°34' W 093°43'0 0.0
2018-Feb-05 11:07N 29°34' W 093°43'0 0.1
2018-Feb-05 10:58N 29°34' W 093°43'0 0.0
2018-Feb-05 10:28N 29°34' W 093°43'0 0.0
2018-Feb-05 09:58N 29°34' W 093°43'0 0.0
2018-Feb-05 09:28N 29°34' W 093°43'0 0.0
2018-Feb-05 08:52N 29°34' W 093°43'0 0.0
2018-Feb-05 08:22N 29°34' W 093°43'0 0.0
2018-Feb-05 07:58N 29°34' W 093°43'0 0.0
2018-Feb-05 07:28N 29°34' W 093°43'0 0.0
2018-Feb-05 06:58N 29°34' W 093°43'0 0.0
2018-Feb-05 06:28N 29°34' W 093°43'0 0.0
2018-Feb-05 05:28N 29°35' W 093°43'0 0.0
2018-Feb-05 04:58N 29°34' W 093°43'0 0.0
2018-Feb-05 04:28N 29°34' W 093°43'0 0.0
2018-Feb-05 03:46N 29°35' W 093°43'0 0.0
2018-Feb-05 03:19N 29°34' W 093°43'0 0.0
2018-Feb-05 02:58N 29°34' W 093°43'0 0.0
2018-Feb-05 02:25N 29°35' W 093°43'0 0.0
2018-Feb-05 01:58N 29°34' W 093°43'0 0.0
2018-Feb-05 01:22N 29°35' W 093°43'0 0.0
2018-Feb-05 00:58N 29°35' W 093°43'0 0.0
2018-Feb-05 00:25N 29°35' W 093°43'0 0.0
2018-Feb-04 23:58N 29°35' W 093°43'0 0.0
2018-Feb-04 23:27N 29°35' W 093°43'0 0.0
2018-Feb-04 22:48N 29°35' W 093°43'0 0.0
2018-Feb-04 22:27N 29°35' W 093°43'0 0.0
2018-Feb-04 22:00N 29°35' W 093°43'0 0.3
2018-Feb-04 21:29N 29°34' W 093°43'0 0.3
2018-Feb-04 21:00N 29°34' W 093°43'7 7.1
2018-Feb-04 20:00N 29°30' W 093°50'5 9.6
2018-Feb-04 19:30N 29°29' W 093°55'4 8.6
2018-Feb-04 19:01N 29°27' W 093°59'510.3
2018-Feb-04 18:30N 29°24' W 094°04'  
Track history (hours):
 
Tides and Currents Weather Stations Pressure Air Temp Water Temp Dewpoint Dewpoint Depression Visibility Wind Speed Wind Dir Waves Ship Positions

Elka Eleftheria

Last reported at 2018-Feb-08 00:56 UTC. Time now 2018-Feb-18 03:25 UTC.
Position N 29°23' W 093°40'.
Warning: this ship's position is 10 days out of date.

Length 183 m; draft 12.2 m.

Type: Ship. MMSI: 636011496.

Date/timePositionNaut miles runAvg speedWind from/ knotsBaromVisibWave heightAir tempDewpointWater temp
2018-Feb-08 00:56N 29°23' W 093°40'6 8.0
2018-Feb-08 00:12N 29°29' W 093°40'210.4
2018-Feb-08 00:00N 29°30' W 093°42'510.6
2018-Feb-07 23:30N 29°34' W 093°46'510.3
2018-Feb-07 23:00N 29°38' W 093°49'510.0
2018-Feb-07 22:30N 29°43' W 093°52'4 8.3
2018-Feb-07 22:00N 29°46' W 093°55'4 7.6
2018-Feb-07 21:31N 29°49' W 093°58'2 0.1
2018-Feb-07 09:30N 29°51' W 093°58'0 0.0
2018-Feb-07 09:00N 29°51' W 093°58'0 0.0
2018-Feb-07 08:30N 29°51' W 093°58'0 0.0
2018-Feb-07 08:00N 29°51' W 093°58'0 0.0
2018-Feb-07 07:30N 29°51' W 093°58'0 0.0
2018-Feb-07 07:00N 29°51' W 093°58'0 0.0
2018-Feb-07 06:30N 29°51' W 093°58'0 0.0
2018-Feb-07 06:00N 29°51' W 093°58'0 0.0
2018-Feb-07 05:30N 29°51' W 093°58'0 0.0
2018-Feb-07 05:00N 29°51' W 093°58'0 0.0
2018-Feb-07 04:30N 29°51' W 093°58'0 0.0
2018-Feb-07 04:00N 29°51' W 093°58'0 0.0
2018-Feb-07 03:30N 29°51' W 093°58'0 0.0
2018-Feb-07 03:00N 29°51' W 093°58'0 0.0
2018-Feb-07 02:30N 29°51' W 093°58'0 0.0
2018-Feb-07 02:00N 29°51' W 093°58'0 0.0
2018-Feb-07 01:30N 29°51' W 093°58'0 0.0
2018-Feb-07 01:00N 29°51' W 093°58'0 0.0
2018-Feb-07 00:30N 29°51' W 093°58'0 0.0
2018-Feb-07 00:00N 29°51' W 093°58'0 0.0
2018-Feb-06 23:30N 29°51' W 093°58'0 0.0
2018-Feb-06 23:00N 29°51' W 093°58'0 0.0
2018-Feb-06 22:30N 29°51' W 093°58'0 0.0
2018-Feb-06 22:00N 29°51' W 093°58'0 0.0
2018-Feb-06 21:30N 29°51' W 093°58'0 0.0
2018-Feb-06 21:00N 29°51' W 093°58'0 0.0
2018-Feb-06 20:30N 29°51' W 093°58'0 0.0
2018-Feb-06 20:00N 29°51' W 093°58'0 0.0
2018-Feb-06 19:30N 29°51' W 093°58'0 0.0
2018-Feb-06 19:00N 29°51' W 093°58'0 0.0
2018-Feb-06 18:30N 29°51' W 093°58'0 0.0
2018-Feb-06 18:00N 29°51' W 093°58'0 0.0
2018-Feb-06 17:30N 29°51' W 093°58'0 0.0
2018-Feb-06 17:00N 29°51' W 093°58'0 0.0
2018-Feb-06 16:30N 29°51' W 093°58'0 0.0
2018-Feb-06 16:00N 29°51' W 093°58'0 0.0
2018-Feb-06 15:30N 29°51' W 093°58'0 0.0
2018-Feb-06 15:00N 29°51' W 093°58'0 0.0
2018-Feb-06 14:27N 29°51' W 093°58'0 0.0
2018-Feb-06 14:00N 29°51' W 093°58'0 0.0
2018-Feb-06 13:30N 29°51' W 093°58'0 0.0
2018-Feb-06 13:00N 29°51' W 093°58'0 0.0
2018-Feb-06 12:30N 29°51' W 093°58'0 0.0
2018-Feb-06 11:30N 29°51' W 093°58'0 0.0
2018-Feb-06 11:00N 29°51' W 093°58'0 0.0
2018-Feb-06 10:00N 29°51' W 093°58'0 0.0
2018-Feb-06 09:30N 29°51' W 093°58'0 0.0
2018-Feb-06 09:00N 29°51' W 093°58'0 0.0
2018-Feb-06 08:30N 29°51' W 093°58'0 0.0
2018-Feb-06 08:00N 29°51' W 093°58'0 0.0
2018-Feb-06 07:30N 29°51' W 093°58'0 0.0
2018-Feb-06 07:00N 29°51' W 093°58'0 0.0
2018-Feb-06 06:29N 29°51' W 093°58'0 0.0
2018-Feb-06 06:00N 29°51' W 093°58'0 0.0
2018-Feb-06 05:28N 29°51' W 093°58'0 0.0
2018-Feb-06 04:58N 29°51' W 093°58'0 0.0
2018-Feb-06 04:27N 29°51' W 093°58'0 0.0
2018-Feb-06 04:00N 29°51' W 093°58'0 0.0
2018-Feb-06 03:30N 29°51' W 093°58'0 0.0
2018-Feb-06 03:00N 29°51' W 093°58'1 0.4
2018-Feb-06 00:30N 29°50' W 093°58'7 7.2
2018-Feb-05 23:30N 29°44' W 093°52'9 9.4
2018-Feb-05 22:30N 29°36' W 093°47'4 3.8
2018-Feb-05 21:28N 29°34' W 093°43'0 0.0
2018-Feb-05 20:58N 29°34' W 093°43'0 0.0
2018-Feb-05 20:28N 29°34' W 093°43'0 0.0
2018-Feb-05 19:49N 29°34' W 093°43'0 0.0
2018-Feb-05 19:28N 29°34' W 093°43'0 0.0
2018-Feb-05 18:22N 29°34' W 093°43'0 0.0
2018-Feb-05 15:43N 29°34' W 093°43'0 0.0
2018-Feb-05 15:16N 29°34' W 093°43'0 0.0
2018-Feb-05 14:58N 29°34' W 093°43'0 0.0
2018-Feb-05 14:28N 29°34' W 093°43'0 0.0
2018-Feb-05 13:52N 29°34' W 093°43'0 0.0
2018-Feb-05 13:28N 29°34' W 093°43'0 0.0
2018-Feb-05 12:55N 29°34' W 093°43'0 0.0
2018-Feb-05 12:10N 29°34' W 093°43'0 0.1
2018-Feb-05 11:58N 29°34' W 093°43'0 0.0
2018-Feb-05 11:07N 29°34' W 093°43'0 0.1
2018-Feb-05 10:58N 29°34' W 093°43'0 0.0
2018-Feb-05 10:28N 29°34' W 093°43'0 0.0
2018-Feb-05 09:58N 29°34' W 093°43'0 0.0
2018-Feb-05 09:28N 29°34' W 093°43'0 0.0
2018-Feb-05 08:52N 29°34' W 093°43'0 0.0
2018-Feb-05 08:22N 29°34' W 093°43'0 0.0
2018-Feb-05 07:58N 29°34' W 093°43'0 0.0
2018-Feb-05 07:28N 29°34' W 093°43'0 0.0
2018-Feb-05 06:58N 29°34' W 093°43'0 0.0
2018-Feb-05 06:28N 29°34' W 093°43'0 0.0
2018-Feb-05 05:28N 29°35' W 093°43'0 0.0
2018-Feb-05 04:58N 29°34' W 093°43'0 0.0
2018-Feb-05 04:28N 29°34' W 093°43'0 0.0
2018-Feb-05 03:46N 29°35' W 093°43'0 0.0
2018-Feb-05 03:19N 29°34' W 093°43'0 0.0
2018-Feb-05 02:58N 29°34' W 093°43'0 0.0
2018-Feb-05 02:25N 29°35' W 093°43'0 0.0
2018-Feb-05 01:58N 29°34' W 093°43'0 0.0
2018-Feb-05 01:22N 29°35' W 093°43'0 0.0
2018-Feb-05 00:58N 29°35' W 093°43'0 0.0
2018-Feb-05 00:25N 29°35' W 093°43'0 0.0
2018-Feb-04 23:58N 29°35' W 093°43'0 0.0
2018-Feb-04 23:27N 29°35' W 093°43'0 0.0
2018-Feb-04 22:48N 29°35' W 093°43'0 0.0
2018-Feb-04 22:27N 29°35' W 093°43'0 0.0
2018-Feb-04 22:00N 29°35' W 093°43'0 0.3
2018-Feb-04 21:29N 29°34' W 093°43'0 0.3
2018-Feb-04 21:00N 29°34' W 093°43'7 7.1
2018-Feb-04 20:00N 29°30' W 093°50'5 9.6
2018-Feb-04 19:30N 29°29' W 093°55'4 8.6
2018-Feb-04 19:01N 29°27' W 093°59'510.3
2018-Feb-04 18:30N 29°24' W 094°04'  

Dump ship's entire track history